BISS weather

Sandskeið Airport
Sandskeið, Capital Region, Iceland

Public forecast

Using degrees Celsius for public forecast. Weather courtesy of forecast.io.

Closest aviation weather report (METAR) to Sandskeið Airport

Closest report is Reykjavik Airport, 10.5 nm (19.4 km) WNW. Retrieved 2019/10/22 15:00 UTC (49 minutes ago):

BIRK 221500Z 02013KT 9999 SCT048 BKN057 BKN070 02/M06 Q1009

Closest aviation forecast (TAF) to Sandskeið Airport

Closest forecast is Reykjavik Airport, 10.5 nm (19.4 km) WNW. Retrieved 2019/10/22 15:24 UTC (25 minutes ago):

TAF BIRK 221322Z 2215/2315 02015KT 9999 FEW040 TX02/2215Z TNM03/2310Z TEMPO 2215/2315 02022G32KT